sensor_id;sensor_type;location;lat;lon;timestamp;temperature;humidity
9497;DHT22;4786;51.270;4.456;2022-11-15T00:01:58;9.50;99.90
9497;DHT22;4786;51.270;4.456;2022-11-15T00:04:24;9.40;99.90
9497;DHT22;4786;51.270;4.456;2022-11-15T00:06:50;9.50;99.90
9497;DHT22;4786;51.270;4.456;2022-11-15T00:09:16;9.70;99.90
9497;DHT22;4786;51.270;4.456;2022-11-15T00:11:42;9.60;99.90
9497;DHT22;4786;51.270;4.456;2022-11-15T00:14:08;9.50;99.90
9497;DHT22;4786;51.270;4.456;2022-11-15T00:16:34;9.60;99.90
9497;DHT22;4786;51.270;4.456;2022-11-15T00:19:00;9.70;99.90
9497;DHT22;4786;51.270;4.456;2022-11-15T00:21:25;9.60;99.90
9497;DHT22;4786;51.270;4.456;2022-11-15T00:23:51;9.60;99.90
9497;DHT22;4786;51.270;4.456;2022-11-15T00:26:18;9.70;99.90
9497;DHT22;4786;51.270;4.456;2022-11-15T00:28:44;9.70;99.90
9497;DHT22;4786;51.270;4.456;2022-11-15T00:31:13;9.70;99.90
9497;DHT22;4786;51.270;4.456;2022-11-15T00:33:39;9.70;99.90
9497;DHT22;4786;51.270;4.456;2022-11-15T00:36:09;9.70;99.90
9497;DHT22;4786;51.270;4.456;2022-11-15T00:38:37;9.70;99.90
9497;DHT22;4786;51.270;4.456;2022-11-15T00:41:04;9.70;99.90
9497;DHT22;4786;51.270;4.456;2022-11-15T00:43:30;9.70;99.90
9497;DHT22;4786;51.270;4.456;2022-11-15T00:45:56;9.80;99.90
9497;DHT22;4786;51.270;4.456;2022-11-15T00:48:23;9.80;99.90
9497;DHT22;4786;51.270;4.456;2022-11-15T00:50:49;9.80;99.90
9497;DHT22;4786;51.270;4.456;2022-11-15T00:53:16;9.80;99.90
9497;DHT22;4786;51.270;4.456;2022-11-15T00:55:42;9.90;99.90
9497;DHT22;4786;51.270;4.456;2022-11-15T00:58:08;9.90;99.90
9497;DHT22;4786;51.270;4.456;2022-11-15T01:00:34;9.90;99.90
9497;DHT22;4786;51.270;4.456;2022-11-15T01:03:00;10.00;99.90
9497;DHT22;4786;51.270;4.456;2022-11-15T01:05:27;10.00;99.90
9497;DHT22;4786;51.270;4.456;2022-11-15T01:07:54;10.10;99.90
9497;DHT22;4786;51.270;4.456;2022-11-15T01:10:22;10.10;99.90
9497;DHT22;4786;51.270;4.456;2022-11-15T01:12:48;10.10;99.90
9497;DHT22;4786;51.270;4.456;2022-11-15T01:15:14;10.20;99.90
9497;DHT22;4786;51.270;4.456;2022-11-15T01:17:40;10.20;99.90
9497;DHT22;4786;51.270;4.456;2022-11-15T01:20:06;10.30;99.90
9497;DHT22;4786;51.270;4.456;2022-11-15T01:22:32;10.40;99.90
9497;DHT22;4786;51.270;4.456;2022-11-15T01:24:58;10.40;99.90
9497;DHT22;4786;51.270;4.456;2022-11-15T01:27:24;10.60;99.90
9497;DHT22;4786;51.270;4.456;2022-11-15T01:29:50;10.70;99.90
9497;DHT22;4786;51.270;4.456;2022-11-15T01:32:17;10.70;99.90
9497;DHT22;4786;51.270;4.456;2022-11-15T01:34:42;10.80;99.90
9497;DHT22;4786;51.270;4.456;2022-11-15T01:37:08;10.80;99.90
9497;DHT22;4786;51.270;4.456;2022-11-15T01:39:34;11.00;99.90
9497;DHT22;4786;51.270;4.456;2022-11-15T01:42:00;11.10;99.90
9497;DHT22;4786;51.270;4.456;2022-11-15T01:44:45;11.10;99.90
9497;DHT22;4786;51.270;4.456;2022-11-15T01:52:18;11.10;99.90
9497;DHT22;4786;51.270;4.456;2022-11-15T01:54:46;11.10;99.90
9497;DHT22;4786;51.270;4.456;2022-11-15T01:57:13;11.20;99.90
9497;DHT22;4786;51.270;4.456;2022-11-15T01:59:42;11.20;99.90
9497;DHT22;4786;51.270;4.456;2022-11-15T02:02:08;11.20;99.90
9497;DHT22;4786;51.270;4.456;2022-11-15T02:04:40;11.30;99.90
9497;DHT22;4786;51.270;4.456;2022-11-15T02:07:08;11.30;99.90
9497;DHT22;4786;51.270;4.456;2022-11-15T02:09:36;11.30;99.90
9497;DHT22;4786;51.270;4.456;2022-11-15T02:12:03;11.40;99.90
9497;DHT22;4786;51.270;4.456;2022-11-15T02:14:30;11.40;99.90
9497;DHT22;4786;51.270;4.456;2022-11-15T02:20:27;11.40;99.90
9497;DHT22;4786;51.270;4.456;2022-11-15T02:31:03;11.40;99.90
9497;DHT22;4786;51.270;4.456;2022-11-15T02:34:06;11.40;99.90
9497;DHT22;4786;51.270;4.456;2022-11-15T02:36:54;11.40;99.90
9497;DHT22;4786;51.270;4.456;2022-11-15T02:39:35;11.40;99.90
9497;DHT22;4786;51.270;4.456;2022-11-15T02:42:11;11.40;99.90
9497;DHT22;4786;51.270;4.456;2022-11-15T02:45:01;11.50;99.90
9497;DHT22;4786;51.270;4.456;2022-11-15T02:47:31;11.50;99.90
9497;DHT22;4786;51.270;4.456;2022-11-15T02:50:18;11.50;99.90
9497;DHT22;4786;51.270;4.456;2022-11-15T02:52:46;11.50;99.90
9497;DHT22;4786;51.270;4.456;2022-11-15T02:55:29;11.60;99.90
9497;DHT22;4786;51.270;4.456;2022-11-15T03:00:54;11.50;99.90
9497;DHT22;4786;51.270;4.456;2022-11-15T03:03:57;11.60;99.90
9497;DHT22;4786;51.270;4.456;2022-11-15T03:09:27;11.60;99.90
9497;DHT22;4786;51.270;4.456;2022-11-15T03:12:22;11.60;99.90
9497;DHT22;4786;51.270;4.456;2022-11-15T03:15:01;11.60;99.90
9497;DHT22;4786;51.270;4.456;2022-11-15T03:17:36;11.60;99.90
9497;DHT22;4786;51.270;4.456;2022-11-15T03:20:06;11.60;99.90
9497;DHT22;4786;51.270;4.456;2022-11-15T03:22:38;11.70;99.90
9497;DHT22;4786;51.270;4.456;2022-11-15T03:25:08;11.70;99.90
9497;DHT22;4786;51.270;4.456;2022-11-15T03:27:39;11.70;99.90
9497;DHT22;4786;51.270;4.456;2022-11-15T03:30:07;11.70;99.90
9497;DHT22;4786;51.270;4.456;2022-11-15T03:32:56;11.60;99.90
9497;DHT22;4786;51.270;4.456;2022-11-15T03:35:24;11.60;99.90
9497;DHT22;4786;51.270;4.456;2022-11-15T03:40:45;11.70;99.90
9497;DHT22;4786;51.270;4.456;2022-11-15T03:46:25;11.80;99.90
9497;DHT22;4786;51.270;4.456;2022-11-15T03:48:55;11.80;99.90
9497;DHT22;4786;51.270;4.456;2022-11-15T03:51:22;11.70;99.90
9497;DHT22;4786;51.270;4.456;2022-11-15T03:53:48;11.70;99.90
9497;DHT22;4786;51.270;4.456;2022-11-15T03:56:14;11.60;99.90
9497;DHT22;4786;51.270;4.456;2022-11-15T03:58:40;11.60;99.90
9497;DHT22;4786;51.270;4.456;2022-11-15T04:01:06;11.70;99.90
9497;DHT22;4786;51.270;4.456;2022-11-15T04:03:32;11.70;99.90
9497;DHT22;4786;51.270;4.456;2022-11-15T04:05:58;11.80;99.90
9497;DHT22;4786;51.270;4.456;2022-11-15T04:08:23;11.80;99.90
9497;DHT22;4786;51.270;4.456;2022-11-15T04:10:49;11.70;99.90
9497;DHT22;4786;51.270;4.456;2022-11-15T04:13:15;11.80;99.90
9497;DHT22;4786;51.270;4.456;2022-11-15T04:15:41;11.60;99.90
9497;DHT22;4786;51.270;4.456;2022-11-15T04:18:07;11.70;99.90
9497;DHT22;4786;51.270;4.456;2022-11-15T04:20:33;11.60;99.90
9497;DHT22;4786;51.270;4.456;2022-11-15T04:23:22;11.60;99.90
9497;DHT22;4786;51.270;4.456;2022-11-15T04:26:10;11.60;99.90
9497;DHT22;4786;51.270;4.456;2022-11-15T04:28:37;11.60;99.90
9497;DHT22;4786;51.270;4.456;2022-11-15T04:31:22;11.60;99.90
9497;DHT22;4786;51.270;4.456;2022-11-15T04:33:48;11.60;99.90
9497;DHT22;4786;51.270;4.456;2022-11-15T04:36:14;11.60;99.90
9497;DHT22;4786;51.270;4.456;2022-11-15T04:38:58;11.60;99.90
9497;DHT22;4786;51.270;4.456;2022-11-15T04:41:24;11.50;99.90
9497;DHT22;4786;51.270;4.456;2022-11-15T04:43:51;11.50;99.90
9497;DHT22;4786;51.270;4.456;2022-11-15T04:46:17;11.60;99.90
9497;DHT22;4786;51.270;4.456;2022-11-15T04:48:42;11.60;99.90
9497;DHT22;4786;51.270;4.456;2022-11-15T04:51:08;11.60;99.90
9497;DHT22;4786;51.270;4.456;2022-11-15T04:53:34;11.60;99.90
9497;DHT22;4786;51.270;4.456;2022-11-15T04:56:00;11.60;99.90
9497;DHT22;4786;51.270;4.456;2022-11-15T04:58:26;11.60;99.90
9497;DHT22;4786;51.270;4.456;2022-11-15T05:00:51;11.50;99.90
9497;DHT22;4786;51.270;4.456;2022-11-15T05:03:17;11.50;99.90
9497;DHT22;4786;51.270;4.456;2022-11-15T05:06:02;11.50;99.90
9497;DHT22;4786;51.270;4.456;2022-11-15T05:08:28;11.50;99.90
9497;DHT22;4786;51.270;4.456;2022-11-15T05:10:53;11.50;99.90
9497;DHT22;4786;51.270;4.456;2022-11-15T05:13:20;11.50;99.90
9497;DHT22;4786;51.270;4.456;2022-11-15T05:15:46;11.50;99.90
9497;DHT22;4786;51.270;4.456;2022-11-15T05:18:12;11.40;99.90
9497;DHT22;4786;51.270;4.456;2022-11-15T05:20:38;11.50;99.90
9497;DHT22;4786;51.270;4.456;2022-11-15T05:23:03;11.50;99.90
9497;DHT22;4786;51.270;4.456;2022-11-15T05:25:30;11.40;99.90
9497;DHT22;4786;51.270;4.456;2022-11-15T05:27:55;11.40;99.90
9497;DHT22;4786;51.270;4.456;2022-11-15T05:30:22;11.30;99.90
9497;DHT22;4786;51.270;4.456;2022-11-15T05:32:47;11.30;99.90
9497;DHT22;4786;51.270;4.456;2022-11-15T05:35:39;11.40;99.90
9497;DHT22;4786;51.270;4.456;2022-11-15T05:38:06;11.40;99.90
9497;DHT22;4786;51.270;4.456;2022-11-15T05:40:33;11.40;99.90
9497;DHT22;4786;51.270;4.456;2022-11-15T05:43:00;11.40;99.90
9497;DHT22;4786;51.270;4.456;2022-11-15T05:45:28;11.40;99.90
9497;DHT22;4786;51.270;4.456;2022-11-15T05:47:56;11.50;99.90
9497;DHT22;4786;51.270;4.456;2022-11-15T05:50:23;11.30;99.90
9497;DHT22;4786;51.270;4.456;2022-11-15T05:52:49;11.20;99.90
9497;DHT22;4786;51.270;4.456;2022-11-15T05:55:15;11.20;99.90
9497;DHT22;4786;51.270;4.456;2022-11-15T05:57:41;11.20;99.90
9497;DHT22;4786;51.270;4.456;2022-11-15T06:00:08;11.10;99.90
9497;DHT22;4786;51.270;4.456;2022-11-15T06:02:35;11.20;99.90
9497;DHT22;4786;51.270;4.456;2022-11-15T06:05:01;11.10;99.90
9497;DHT22;4786;51.270;4.456;2022-11-15T06:07:29;11.10;99.90
9497;DHT22;4786;51.270;4.456;2022-11-15T06:09:55;11.20;99.90
9497;DHT22;4786;51.270;4.456;2022-11-15T06:12:20;11.20;99.90
9497;DHT22;4786;51.270;4.456;2022-11-15T06:14:46;11.30;99.90
9497;DHT22;4786;51.270;4.456;2022-11-15T06:17:12;11.30;99.90
9497;DHT22;4786;51.270;4.456;2022-11-15T06:19:38;11.20;99.90
9497;DHT22;4786;51.270;4.456;2022-11-15T06:22:03;11.20;99.90
9497;DHT22;4786;51.270;4.456;2022-11-15T06:24:30;11.30;99.90
9497;DHT22;4786;51.270;4.456;2022-11-15T06:26:55;11.20;99.90
9497;DHT22;4786;51.270;4.456;2022-11-15T06:29:22;11.20;99.90
9497;DHT22;4786;51.270;4.456;2022-11-15T06:31:49;11.10;99.90
9497;DHT22;4786;51.270;4.456;2022-11-15T06:34:14;11.10;99.90
9497;DHT22;4786;51.270;4.456;2022-11-15T06:36:40;11.10;99.90
9497;DHT22;4786;51.270;4.456;2022-11-15T06:39:06;11.10;99.90
9497;DHT22;4786;51.270;4.456;2022-11-15T06:41:35;11.10;99.90
9497;DHT22;4786;51.270;4.456;2022-11-15T06:44:02;10.90;99.90
9497;DHT22;4786;51.270;4.456;2022-11-15T06:46:28;11.00;99.90
9497;DHT22;4786;51.270;4.456;2022-11-15T06:48:53;11.00;99.90
9497;DHT22;4786;51.270;4.456;2022-11-15T06:51:20;11.10;99.90
9497;DHT22;4786;51.270;4.456;2022-11-15T06:53:45;11.00;99.90
9497;DHT22;4786;51.270;4.456;2022-11-15T06:56:12;11.00;99.90
9497;DHT22;4786;51.270;4.456;2022-11-15T06:58:38;11.00;99.90
9497;DHT22;4786;51.270;4.456;2022-11-15T07:01:07;11.00;99.90
9497;DHT22;4786;51.270;4.456;2022-11-15T07:03:37;11.00;99.90
9497;DHT22;4786;51.270;4.456;2022-11-15T07:06:04;10.90;99.90
9497;DHT22;4786;51.270;4.456;2022-11-15T07:08:30;10.90;99.90
9497;DHT22;4786;51.270;4.456;2022-11-15T07:11:05;10.80;99.90
9497;DHT22;4786;51.270;4.456;2022-11-15T07:13:32;10.80;99.90
9497;DHT22;4786;51.270;4.456;2022-11-15T07:16:08;10.80;99.90
9497;DHT22;4786;51.270;4.456;2022-11-15T07:18:35;10.80;99.90
9497;DHT22;4786;51.270;4.456;2022-11-15T07:21:03;10.70;99.90
9497;DHT22;4786;51.270;4.456;2022-11-15T07:23:29;10.70;99.90
9497;DHT22;4786;51.270;4.456;2022-11-15T07:25:57;10.80;99.90
9497;DHT22;4786;51.270;4.456;2022-11-15T07:28:23;10.70;99.90
9497;DHT22;4786;51.270;4.456;2022-11-15T07:30:49;10.70;99.90
9497;DHT22;4786;51.270;4.456;2022-11-15T07:33:15;10.70;99.90
9497;DHT22;4786;51.270;4.456;2022-11-15T07:35:40;10.60;99.90
9497;DHT22;4786;51.270;4.456;2022-11-15T07:38:08;10.60;99.90
9497;DHT22;4786;51.270;4.456;2022-11-15T07:40:34;10.60;99.90
9497;DHT22;4786;51.270;4.456;2022-11-15T07:43:07;10.60;99.90
9497;DHT22;4786;51.270;4.456;2022-11-15T07:45:33;10.60;99.90
9497;DHT22;4786;51.270;4.456;2022-11-15T07:48:00;10.70;99.90
9497;DHT22;4786;51.270;4.456;2022-11-15T07:50:26;10.70;99.90
9497;DHT22;4786;51.270;4.456;2022-11-15T07:52:56;10.70;99.90
9497;DHT22;4786;51.270;4.456;2022-11-15T07:55:23;10.70;99.90
9497;DHT22;4786;51.270;4.456;2022-11-15T07:57:50;10.70;99.90
9497;DHT22;4786;51.270;4.456;2022-11-15T08:00:17;10.80;99.90
9497;DHT22;4786;51.270;4.456;2022-11-15T08:02:43;10.80;99.90
9497;DHT22;4786;51.270;4.456;2022-11-15T08:05:09;10.80;99.90
9497;DHT22;4786;51.270;4.456;2022-11-15T08:07:35;10.80;99.90
9497;DHT22;4786;51.270;4.456;2022-11-15T08:10:00;11.00;99.90
9497;DHT22;4786;51.270;4.456;2022-11-15T08:12:29;10.90;99.90
9497;DHT22;4786;51.270;4.456;2022-11-15T08:14:55;10.90;99.90
9497;DHT22;4786;51.270;4.456;2022-11-15T08:17:25;11.00;99.90
9497;DHT22;4786;51.270;4.456;2022-11-15T08:19:50;11.00;99.90
9497;DHT22;4786;51.270;4.456;2022-11-15T08:22:17;11.00;99.90
9497;DHT22;4786;51.270;4.456;2022-11-15T08:24:43;11.00;99.90
9497;DHT22;4786;51.270;4.456;2022-11-15T08:27:10;11.00;99.90
9497;DHT22;4786;51.270;4.456;2022-11-15T08:29:44;11.00;99.90
9497;DHT22;4786;51.270;4.456;2022-11-15T08:32:10;11.10;99.90
9497;DHT22;4786;51.270;4.456;2022-11-15T08:34:37;11.20;99.90
9497;DHT22;4786;51.270;4.456;2022-11-15T08:37:04;11.20;99.90
9497;DHT22;4786;51.270;4.456;2022-11-15T08:39:31;11.30;99.90
9497;DHT22;4786;51.270;4.456;2022-11-15T08:41:57;11.20;99.90
9497;DHT22;4786;51.270;4.456;2022-11-15T08:44:23;11.20;99.90
9497;DHT22;4786;51.270;4.456;2022-11-15T08:46:49;11.20;99.90
9497;DHT22;4786;51.270;4.456;2022-11-15T08:49:15;11.20;99.90
9497;DHT22;4786;51.270;4.456;2022-11-15T08:51:41;11.20;99.90
9497;DHT22;4786;51.270;4.456;2022-11-15T08:54:07;11.10;99.90
9497;DHT22;4786;51.270;4.456;2022-11-15T08:56:33;11.10;99.90
9497;DHT22;4786;51.270;4.456;2022-11-15T08:58:59;11.20;99.90
9497;DHT22;4786;51.270;4.456;2022-11-15T09:01:24;11.10;99.90
9497;DHT22;4786;51.270;4.456;2022-11-15T09:03:50;11.30;99.90
9497;DHT22;4786;51.270;4.456;2022-11-15T09:06:16;11.30;99.90
9497;DHT22;4786;51.270;4.456;2022-11-15T09:08:42;11.30;99.90
9497;DHT22;4786;51.270;4.456;2022-11-15T09:11:09;11.40;99.90
9497;DHT22;4786;51.270;4.456;2022-11-15T09:13:35;11.40;99.90
9497;DHT22;4786;51.270;4.456;2022-11-15T09:16:05;11.40;99.90
9497;DHT22;4786;51.270;4.456;2022-11-15T09:18:31;11.40;99.90
9497;DHT22;4786;51.270;4.456;2022-11-15T09:20:58;11.30;99.90
9497;DHT22;4786;51.270;4.456;2022-11-15T09:23:25;11.40;99.90
9497;DHT22;4786;51.270;4.456;2022-11-15T09:25:52;11.30;99.90
9497;DHT22;4786;51.270;4.456;2022-11-15T09:28:18;11.50;99.90
9497;DHT22;4786;51.270;4.456;2022-11-15T09:30:44;11.40;99.90
9497;DHT22;4786;51.270;4.456;2022-11-15T09:33:12;11.50;99.90
9497;DHT22;4786;51.270;4.456;2022-11-15T09:35:38;11.60;99.90
9497;DHT22;4786;51.270;4.456;2022-11-15T09:38:04;11.70;99.90
9497;DHT22;4786;51.270;4.456;2022-11-15T09:40:31;11.60;99.90
9497;DHT22;4786;51.270;4.456;2022-11-15T09:43:16;11.70;99.90
9497;DHT22;4786;51.270;4.456;2022-11-15T09:45:56;11.80;99.90
9497;DHT22;4786;51.270;4.456;2022-11-15T09:50:59;11.80;99.90
9497;DHT22;4786;51.270;4.456;2022-11-15T09:53:34;11.80;99.90
9497;DHT22;4786;51.270;4.456;2022-11-15T09:56:19;11.80;99.90
9497;DHT22;4786;51.270;4.456;2022-11-15T10:04:22;11.90;99.90
9497;DHT22;4786;51.270;4.456;2022-11-15T10:07:17;12.00;99.90
9497;DHT22;4786;51.270;4.456;2022-11-15T10:09:48;12.00;99.90
9497;DHT22;4786;51.270;4.456;2022-11-15T10:12:16;12.00;99.90
9497;DHT22;4786;51.270;4.456;2022-11-15T10:14:43;12.00;99.90
9497;DHT22;4786;51.270;4.456;2022-11-15T10:22:39;12.20;99.90
9497;DHT22;4786;51.270;4.456;2022-11-15T10:27:35;12.30;99.90
9497;DHT22;4786;51.270;4.456;2022-11-15T10:30:04;12.40;99.90
9497;DHT22;4786;51.270;4.456;2022-11-15T10:32:36;12.40;99.90
9497;DHT22;4786;51.270;4.456;2022-11-15T10:35:17;12.40;99.90
9497;DHT22;4786;51.270;4.456;2022-11-15T10:37:43;12.60;99.90
9497;DHT22;4786;51.270;4.456;2022-11-15T10:40:20;12.60;99.90
9497;DHT22;4786;51.270;4.456;2022-11-15T10:42:47;12.70;99.90
9497;DHT22;4786;51.270;4.456;2022-11-15T10:45:31;12.80;99.90
9497;DHT22;4786;51.270;4.456;2022-11-15T10:50:45;12.80;99.90
9497;DHT22;4786;51.270;4.456;2022-11-15T10:53:23;12.90;99.90
9497;DHT22;4786;51.270;4.456;2022-11-15T10:55:52;13.10;99.90
9497;DHT22;4786;51.270;4.456;2022-11-15T11:01:29;13.30;99.90
9497;DHT22;4786;51.270;4.456;2022-11-15T11:04:04;13.30;99.90
9497;DHT22;4786;51.270;4.456;2022-11-15T11:06:30;13.40;99.90
9497;DHT22;4786;51.270;4.456;2022-11-15T11:09:01;13.40;99.90
9497;DHT22;4786;51.270;4.456;2022-11-15T11:11:48;13.50;99.90
9497;DHT22;4786;51.270;4.456;2022-11-15T11:14:30;13.60;99.90
9497;DHT22;4786;51.270;4.456;2022-11-15T11:17:32;13.70;99.90
9497;DHT22;4786;51.270;4.456;2022-11-15T11:23:02;13.70;99.90
9497;DHT22;4786;51.270;4.456;2022-11-15T11:36:38;13.60;99.90
9497;DHT22;4786;51.270;4.456;2022-11-15T11:39:32;13.60;99.90
9497;DHT22;4786;51.270;4.456;2022-11-15T11:45:15;13.50;99.90
9497;DHT22;4786;51.270;4.456;2022-11-15T11:50:50;13.50;99.90
9497;DHT22;4786;51.270;4.456;2022-11-15T11:53:39;13.50;99.90
9497;DHT22;4786;51.270;4.456;2022-11-15T11:56:14;13.50;99.90
9497;DHT22;4786;51.270;4.456;2022-11-15T11:58:43;13.40;99.90
9497;DHT22;4786;51.270;4.456;2022-11-15T12:01:29;13.40;99.90
9497;DHT22;4786;51.270;4.456;2022-11-15T12:04:19;13.50;99.90
9497;DHT22;4786;51.270;4.456;2022-11-15T12:06:57;13.40;99.90
9497;DHT22;4786;51.270;4.456;2022-11-15T12:12:36;13.30;99.90
9497;DHT22;4786;51.270;4.456;2022-11-15T12:17:37;13.40;99.90
9497;DHT22;4786;51.270;4.456;2022-11-15T12:20:24;13.40;99.90
9497;DHT22;4786;51.270;4.456;2022-11-15T12:23:24;13.50;99.90
9497;DHT22;4786;51.270;4.456;2022-11-15T12:26:14;13.50;99.90
9497;DHT22;4786;51.270;4.456;2022-11-15T12:28:47;13.50;99.90
9497;DHT22;4786;51.270;4.456;2022-11-15T12:33:57;13.50;99.90
9497;DHT22;4786;51.270;4.456;2022-11-15T12:41:17;13.40;99.90
9497;DHT22;4786;51.270;4.456;2022-11-15T12:43:46;13.40;99.90
9497;DHT22;4786;51.270;4.456;2022-11-15T13:04:48;13.50;99.90
9497;DHT22;4786;51.270;4.456;2022-11-15T13:15:31;13.50;99.90
9497;DHT22;4786;51.270;4.456;2022-11-15T13:17:58;13.50;99.90
9497;DHT22;4786;51.270;4.456;2022-11-15T13:20:30;13.50;99.90
9497;DHT22;4786;51.270;4.456;2022-11-15T13:23:09;13.50;99.90
9497;DHT22;4786;51.270;4.456;2022-11-15T13:28:10;13.50;99.90
9497;DHT22;4786;51.270;4.456;2022-11-15T13:30:37;13.50;99.90
9497;DHT22;4786;51.270;4.456;2022-11-15T13:33:36;13.60;99.90
9497;DHT22;4786;51.270;4.456;2022-11-15T13:36:31;13.60;99.90
9497;DHT22;4786;51.270;4.456;2022-11-15T13:39:03;13.60;99.90
9497;DHT22;4786;51.270;4.456;2022-11-15T13:41:32;13.60;99.90
9497;DHT22;4786;51.270;4.456;2022-11-15T13:43:59;13.70;99.90
9497;DHT22;4786;51.270;4.456;2022-11-15T13:48:56;13.70;99.90
9497;DHT22;4786;51.270;4.456;2022-11-15T13:51:46;13.70;99.90
9497;DHT22;4786;51.270;4.456;2022-11-15T13:56:48;13.70;99.90
9497;DHT22;4786;51.270;4.456;2022-11-15T13:59:35;13.70;99.90
9497;DHT22;4786;51.270;4.456;2022-11-15T14:02:12;13.70;99.90
9497;DHT22;4786;51.270;4.456;2022-11-15T14:04:50;13.60;99.90
9497;DHT22;4786;51.270;4.456;2022-11-15T14:07:19;13.60;99.90
9497;DHT22;4786;51.270;4.456;2022-11-15T14:09:45;13.50;99.90
9497;DHT22;4786;51.270;4.456;2022-11-15T14:14:53;13.50;99.90
9497;DHT22;4786;51.270;4.456;2022-11-15T14:17:32;13.50;99.90
9497;DHT22;4786;51.270;4.456;2022-11-15T14:19:58;13.50;99.90
9497;DHT22;4786;51.270;4.456;2022-11-15T14:22:25;13.40;99.90
9497;DHT22;4786;51.270;4.456;2022-11-15T14:25:19;13.40;99.90
9497;DHT22;4786;51.270;4.456;2022-11-15T14:30:33;13.40;99.90
9497;DHT22;4786;51.270;4.456;2022-11-15T14:32:59;13.50;99.90
9497;DHT22;4786;51.270;4.456;2022-11-15T14:35:26;13.50;99.90
9497;DHT22;4786;51.270;4.456;2022-11-15T14:37:51;13.40;99.90
9497;DHT22;4786;51.270;4.456;2022-11-15T14:40:20;13.30;99.90
9497;DHT22;4786;51.270;4.456;2022-11-15T14:42:48;13.40;99.90
9497;DHT22;4786;51.270;4.456;2022-11-15T14:45:20;13.40;99.90
9497;DHT22;4786;51.270;4.456;2022-11-15T14:47:46;13.40;99.90
9497;DHT22;4786;51.270;4.456;2022-11-15T14:50:13;13.40;99.90
9497;DHT22;4786;51.270;4.456;2022-11-15T14:52:40;13.50;99.90
9497;DHT22;4786;51.270;4.456;2022-11-15T14:55:26;13.40;99.90
9497;DHT22;4786;51.270;4.456;2022-11-15T14:57:54;13.30;99.90
9497;DHT22;4786;51.270;4.456;2022-11-15T15:00:20;13.20;99.90
9497;DHT22;4786;51.270;4.456;2022-11-15T15:02:46;13.20;99.90
9497;DHT22;4786;51.270;4.456;2022-11-15T15:07:44;13.10;99.90
9497;DHT22;4786;51.270;4.456;2022-11-15T15:10:11;13.10;99.90
9497;DHT22;4786;51.270;4.456;2022-11-15T15:12:38;13.00;99.90
9497;DHT22;4786;51.270;4.456;2022-11-15T15:15:04;12.90;99.90
9497;DHT22;4786;51.270;4.456;2022-11-15T15:17:30;13.00;99.90
9497;DHT22;4786;51.270;4.456;2022-11-15T15:19:57;12.90;99.90
9497;DHT22;4786;51.270;4.456;2022-11-15T15:22:22;12.90;99.90
9497;DHT22;4786;51.270;4.456;2022-11-15T15:24:51;12.80;99.90
9497;DHT22;4786;51.270;4.456;2022-11-15T15:27:17;12.70;99.90
9497;DHT22;4786;51.270;4.456;2022-11-15T15:29:43;12.80;99.90
9497;DHT22;4786;51.270;4.456;2022-11-15T15:32:10;12.80;99.90
9497;DHT22;4786;51.270;4.456;2022-11-15T15:34:36;12.80;99.90
9497;DHT22;4786;51.270;4.456;2022-11-15T15:39:42;12.70;99.90
9497;DHT22;4786;51.270;4.456;2022-11-15T15:42:08;12.70;99.90
9497;DHT22;4786;51.270;4.456;2022-11-15T15:44:34;12.70;99.90
9497;DHT22;4786;51.270;4.456;2022-11-15T15:47:00;12.70;99.90
9497;DHT22;4786;51.270;4.456;2022-11-15T15:49:26;12.80;99.90
9497;DHT22;4786;51.270;4.456;2022-11-15T15:51:52;12.70;99.90
9497;DHT22;4786;51.270;4.456;2022-11-15T15:54:17;12.70;99.90
9497;DHT22;4786;51.270;4.456;2022-11-15T15:56:43;12.60;99.90
9497;DHT22;4786;51.270;4.456;2022-11-15T15:59:09;12.70;99.90
9497;DHT22;4786;51.270;4.456;2022-11-15T16:01:35;12.70;99.90
9497;DHT22;4786;51.270;4.456;2022-11-15T16:04:01;12.70;99.90
9497;DHT22;4786;51.270;4.456;2022-11-15T16:06:36;12.80;99.90
9497;DHT22;4786;51.270;4.456;2022-11-15T16:09:03;12.70;99.90
9497;DHT22;4786;51.270;4.456;2022-11-15T16:11:29;12.70;99.90
9497;DHT22;4786;51.270;4.456;2022-11-15T16:13:55;12.60;99.90
9497;DHT22;4786;51.270;4.456;2022-11-15T16:16:21;12.70;99.90
9497;DHT22;4786;51.270;4.456;2022-11-15T16:18:47;12.60;99.90
9497;DHT22;4786;51.270;4.456;2022-11-15T16:21:13;12.60;99.90
9497;DHT22;4786;51.270;4.456;2022-11-15T16:23:39;12.50;99.90
9497;DHT22;4786;51.270;4.456;2022-11-15T16:26:21;12.50;99.90
9497;DHT22;4786;51.270;4.456;2022-11-15T16:28:47;12.50;99.90
9497;DHT22;4786;51.270;4.456;2022-11-15T16:31:14;12.50;99.90
9497;DHT22;4786;51.270;4.456;2022-11-15T16:33:40;12.50;99.90
9497;DHT22;4786;51.270;4.456;2022-11-15T16:36:12;12.50;99.90
9497;DHT22;4786;51.270;4.456;2022-11-15T16:38:39;12.50;99.90
9497;DHT22;4786;51.270;4.456;2022-11-15T16:41:05;12.40;99.90
9497;DHT22;4786;51.270;4.456;2022-11-15T16:43:31;12.50;99.90
9497;DHT22;4786;51.270;4.456;2022-11-15T16:45:57;12.40;99.90
9497;DHT22;4786;51.270;4.456;2022-11-15T16:48:27;12.50;99.90
9497;DHT22;4786;51.270;4.456;2022-11-15T16:50:55;12.40;99.90
9497;DHT22;4786;51.270;4.456;2022-11-15T16:53:21;12.40;99.90
9497;DHT22;4786;51.270;4.456;2022-11-15T16:55:48;12.40;99.90
9497;DHT22;4786;51.270;4.456;2022-11-15T16:58:13;12.40;99.90
9497;DHT22;4786;51.270;4.456;2022-11-15T17:00:39;12.40;99.90
9497;DHT22;4786;51.270;4.456;2022-11-15T17:03:05;12.50;99.90
9497;DHT22;4786;51.270;4.456;2022-11-15T17:05:31;12.50;99.90
9497;DHT22;4786;51.270;4.456;2022-11-15T17:07:57;12.40;99.90
9497;DHT22;4786;51.270;4.456;2022-11-15T17:10:25;12.50;99.90
9497;DHT22;4786;51.270;4.456;2022-11-15T17:12:51;12.50;99.90
9497;DHT22;4786;51.270;4.456;2022-11-15T17:15:18;12.50;99.90
9497;DHT22;4786;51.270;4.456;2022-11-15T17:17:44;12.50;99.90
9497;DHT22;4786;51.270;4.456;2022-11-15T17:20:16;12.40;99.90
9497;DHT22;4786;51.270;4.456;2022-11-15T17:22:42;12.40;99.90
9497;DHT22;4786;51.270;4.456;2022-11-15T17:25:09;12.40;99.90
9497;DHT22;4786;51.270;4.456;2022-11-15T17:27:34;12.40;99.90
9497;DHT22;4786;51.270;4.456;2022-11-15T17:30:00;12.40;99.90
9497;DHT22;4786;51.270;4.456;2022-11-15T17:32:26;12.40;99.90
9497;DHT22;4786;51.270;4.456;2022-11-15T17:34:52;12.30;99.90
9497;DHT22;4786;51.270;4.456;2022-11-15T17:37:18;12.30;99.90
9497;DHT22;4786;51.270;4.456;2022-11-15T17:39:43;12.40;99.90
9497;DHT22;4786;51.270;4.456;2022-11-15T17:42:09;12.30;99.90
9497;DHT22;4786;51.270;4.456;2022-11-15T17:44:35;12.30;99.90
9497;DHT22;4786;51.270;4.456;2022-11-15T17:47:01;12.30;99.90
9497;DHT22;4786;51.270;4.456;2022-11-15T17:49:27;12.30;99.90
9497;DHT22;4786;51.270;4.456;2022-11-15T17:51:53;12.30;99.90
9497;DHT22;4786;51.270;4.456;2022-11-15T17:54:19;12.30;99.90
9497;DHT22;4786;51.270;4.456;2022-11-15T17:56:45;12.30;99.90
9497;DHT22;4786;51.270;4.456;2022-11-15T17:59:11;12.20;99.90
9497;DHT22;4786;51.270;4.456;2022-11-15T18:01:37;12.30;99.90
9497;DHT22;4786;51.270;4.456;2022-11-15T18:04:06;12.40;99.90
9497;DHT22;4786;51.270;4.456;2022-11-15T18:06:34;12.40;99.90
9497;DHT22;4786;51.270;4.456;2022-11-15T18:09:00;12.40;99.90
9497;DHT22;4786;51.270;4.456;2022-11-15T18:11:35;12.40;99.90
9497;DHT22;4786;51.270;4.456;2022-11-15T18:14:04;12.40;99.90
9497;DHT22;4786;51.270;4.456;2022-11-15T18:16:32;12.40;99.90
9497;DHT22;4786;51.270;4.456;2022-11-15T18:18:59;12.40;99.90
9497;DHT22;4786;51.270;4.456;2022-11-15T18:21:29;12.40;99.90
9497;DHT22;4786;51.270;4.456;2022-11-15T18:23:58;12.40;99.90
9497;DHT22;4786;51.270;4.456;2022-11-15T18:26:26;12.40;99.90